Terminal Aerodrome Forecast
Issued by NWS Melbourne, FL

Home | Current Version | Previous Version | Text Only | Print | Product List | Glossary On
Versions: 1 2 3 4 5 6 7 8 9 10 11 12 13 14 15 16 17 18 19 20 21 22 23 24 25
305
FTUS42 KMLB 231829 AAA
TAFMCO
TAF AMD
KMCO 231829Z 2318/2418 12012KT P6SM VCSH SCT030 BKN050 BKN250
      TEMPO 2319/2321 3SM TSRA SCT015CB BKN025
     FM240000 05009KT P6SM VCSH SCT030 BKN050 BKN250
     FM240600 02007KT P6SM SCT025 BKN060=

USA.gov is the U.S. government's official web portal to all federal, state and local government web resources and services.